»·PEaware :: N1728X KSEA-KPSC

N1728X :: KSEA-KPSC

FLIGHT INFORMATION

Flight Status: Arrived
Operator: Privately registered:
United States
More flights under this callsign
Pilot: Leonard B. (9579)
Aircraft: CESSNA 172 SKYHAWK
(C172)
More flights by this aircraft type
Origin: KSEA Seattle-Tacoma Intl
United States
Destination: KPSC Tri-Cities
United States
More flights between these airports :: More routes between these airports
Route: SEA7 BLAKO V4 YKM V204 GUSSE
File this flight plan on PilotEdge
Remarks:
Altitude:
(Current/Filed)
70ft
Speed:
(Current/Filed)
110kts
Departed: 05-Dec-20 02:55 PM
Arrived: 05-Dec-20 04:40 PM
Distance/Time
Traveled:
149nm/1:45
Distance/Time
To Go:
Arrived

Flight Plot

Page will automatically refresh every two minutes.

Flight plan parsing failed; only flown route is shown


Map Options




Map Legend


Flown Route
Filed Route
Departure Airport
Arrival Airport
Navaid (VOR, NDB)
Fix

Horizontal Profiles

Position Reports

Time Latitude Longitude Heading Altitude Ground
Speed
05-Dec-20 14:30 47.436525 -122.303446 245 357ft 0kts
05-Dec-20 14:31 47.436525 -122.303446 245 357ft 0kts
05-Dec-20 14:32 47.436525 -122.303446 245 357ft 0kts
05-Dec-20 14:33 47.436525 -122.303446 245 357ft 0kts
05-Dec-20 14:34 47.436525 -122.303446 245 357ft 0kts
05-Dec-20 14:36 47.436525 -122.303446 245 357ft 0kts
05-Dec-20 14:36 47.436525 -122.303446 245 357ft 0kts
05-Dec-20 14:37 47.436525 -122.303446 245 357ft 0kts
05-Dec-20 14:38 47.436525 -122.303446 245 357ft 0kts
05-Dec-20 14:39 47.436525 -122.303446 245 357ft 0kts
05-Dec-20 14:40 47.436525 -122.303446 245 357ft 0kts
05-Dec-20 14:41 47.436525 -122.303446 245 357ft 0kts
05-Dec-20 14:42 47.436525 -122.303446 245 357ft 0kts
05-Dec-20 14:43 47.436791 -122.304265 291 359ft 8kts
05-Dec-20 14:44 47.440355 -122.306389 359 373ft 19kts
05-Dec-20 14:45 47.446223 -122.306299 0 390ft 22kts
05-Dec-20 14:46 47.452346 -122.306236 0 417ft 21kts
05-Dec-20 14:47 47.458252 -122.306182 1 436ft 21kts
05-Dec-20 14:48 47.461937 -122.306092 3 428ft 6kts
05-Dec-20 14:49 47.462210 -122.306087 358 426ft 0kts
05-Dec-20 14:50 47.463655 -122.306320 309 413ft 0kts
05-Dec-20 14:51 47.463655 -122.306320 309 413ft 0kts
05-Dec-20 14:52 47.463655 -122.306320 309 413ft 0kts
05-Dec-20 14:53 47.463655 -122.306320 309 413ft 0kts
05-Dec-20 14:54 47.461839 -122.307737 180 419ft 46kts
05-Dec-20 14:55 47.441856 -122.308997 184 1055ft 79kts
05-Dec-20 14:56 47.419669 -122.308987 179 1783ft 79kts
05-Dec-20 14:57 47.396328 -122.307860 176 2349ft 92kts
05-Dec-20 14:58 47.369849 -122.307660 177 2855ft 97kts
05-Dec-20 14:59 47.340490 -122.308363 178 3002ft 112kts
05-Dec-20 15:00 47.309764 -122.308106 158 3271ft 106kts
05-Dec-20 15:01 47.309755 -122.269590 74 3775ft 110kts
05-Dec-20 15:02 47.316715 -122.226016 86 4274ft 109kts
05-Dec-20 15:03 47.320497 -122.181461 89 4774ft 109kts
05-Dec-20 15:04 47.323163 -122.136871 91 5268ft 108kts
05-Dec-20 15:05 47.325641 -122.092209 92 5699ft 110kts
05-Dec-20 15:06 47.317849 -122.051657 125 6091ft 103kts
05-Dec-20 15:07 47.302832 -122.015818 127 6485ft 101kts
05-Dec-20 15:08 47.287554 -121.981051 128 6874ft 100kts
05-Dec-20 15:09 47.271252 -121.945278 129 6996ft 109kts
05-Dec-20 15:10 47.254672 -121.908900 128 6998ft 106kts
05-Dec-20 15:11 47.238231 -121.872801 128 6999ft 106kts
05-Dec-20 15:12 47.221805 -121.836850 129 6999ft 105kts
05-Dec-20 15:13 47.205397 -121.800759 128 7000ft 106kts
05-Dec-20 15:14 47.188945 -121.764776 128 6995ft 106kts
05-Dec-20 15:15 47.172421 -121.728756 128 6998ft 105kts
05-Dec-20 15:16 47.156016 -121.692993 128 6998ft 105kts
05-Dec-20 15:17 47.139610 -121.657153 128 6999ft 105kts
05-Dec-20 15:18 47.123214 -121.621407 128 6997ft 105kts
05-Dec-20 15:19 47.106720 -121.585555 128 6997ft 106kts
05-Dec-20 15:20 47.090208 -121.549776 128 6947ft 110kts
05-Dec-20 15:21 47.072642 -121.512176 128 6753ft 110kts
05-Dec-20 15:22 47.055969 -121.475890 127 6751ft 105kts
05-Dec-20 15:23 47.039354 -121.439722 123 6751ft 110kts
05-Dec-20 15:24 47.022073 -121.402463 126 6753ft 109kts
05-Dec-20 15:25 47.004521 -121.364500 128 6753ft 111kts
05-Dec-20 15:27 46.987268 -121.327493 127 6738ft 109kts
05-Dec-20 15:28 46.969894 -121.289997 128 6751ft 111kts
05-Dec-20 15:29 46.952603 -121.253183 128 6750ft 107kts
05-Dec-20 15:30 46.935408 -121.215954 128 6750ft 109kts
05-Dec-20 15:31 46.918318 -121.179584 128 6749ft 108kts
05-Dec-20 15:32 46.900550 -121.141329 127 6765ft 112kts
05-Dec-20 15:33 46.883083 -121.104303 128 6753ft 108kts
05-Dec-20 15:34 46.866060 -121.067894 128 6753ft 108kts
05-Dec-20 15:35 46.848992 -121.031689 128 6753ft 108kts
05-Dec-20 15:36 46.831994 -120.995458 128 6755ft 108kts
05-Dec-20 15:37 46.814881 -120.959149 128 6754ft 108kts
05-Dec-20 15:38 46.797939 -120.923097 128 6754ft 107kts
05-Dec-20 15:39 46.780996 -120.887151 128 6753ft 107kts
05-Dec-20 15:40 46.763952 -120.851054 128 6762ft 107kts
05-Dec-20 15:41 46.746933 -120.815089 128 6762ft 108kts
05-Dec-20 15:41 46.732736 -120.785130 128 6762ft 108kts
05-Dec-20 15:43 46.712833 -120.743164 128 6762ft 108kts
05-Dec-20 15:43 46.698570 -120.713119 128 6762ft 108kts
05-Dec-20 15:45 46.678616 -120.671133 128 6762ft 108kts
05-Dec-20 15:45 46.664401 -120.641265 128 6762ft 108kts
05-Dec-20 15:47 46.644398 -120.599292 128 6762ft 108kts
05-Dec-20 15:47 46.630067 -120.569275 128 6762ft 108kts
05-Dec-20 15:49 46.610042 -120.527380 128 6762ft 108kts
05-Dec-20 15:49 46.595714 -120.497439 128 6762ft 108kts
05-Dec-20 15:50 46.578317 -120.461147 128 6762ft 109kts
05-Dec-20 15:51 46.565436 -120.420752 113 6762ft 111kts
05-Dec-20 15:52 46.555505 -120.377912 113 6761ft 111kts
05-Dec-20 15:53 46.545793 -120.335123 113 6762ft 111kts
05-Dec-20 15:54 46.536067 -120.292108 113 6762ft 112kts
05-Dec-20 15:55 46.526345 -120.249110 113 6762ft 112kts
05-Dec-20 15:56 46.516644 -120.206256 114 6762ft 111kts
05-Dec-20 15:57 46.506898 -120.163319 114 6762ft 112kts
05-Dec-20 15:58 46.497174 -120.120464 114 6761ft 112kts
05-Dec-20 15:59 46.487599 -120.077391 114 6956ft 103kts
05-Dec-20 16:00 46.476791 -120.031033 114 6955ft 108kts
05-Dec-20 16:01 46.466077 -119.984347 114 6952ft 109kts
05-Dec-20 16:02 46.455282 -119.937167 113 6952ft 109kts
05-Dec-20 16:03 46.444388 -119.890000 114 6953ft 109kts
05-Dec-20 16:04 46.433899 -119.843505 113 6953ft 109kts
05-Dec-20 16:05 46.424148 -119.799381 113 6953ft 109kts
05-Dec-20 16:06 46.414440 -119.755937 113 6953ft 108kts
05-Dec-20 16:07 46.404805 -119.712664 116 6954ft 111kts
05-Dec-20 16:08 46.394804 -119.667815 115 6895ft 112kts
05-Dec-20 16:09 46.385150 -119.624574 115 6263ft 107kts
05-Dec-20 16:10 46.375500 -119.581663 114 5634ft 107kts
05-Dec-20 16:11 46.365950 -119.539170 111 5016ft 109kts
05-Dec-20 16:12 46.356303 -119.496397 110 4522ft 121kts
05-Dec-20 16:13 46.347347 -119.452047 84 3969ft 108kts
05-Dec-20 16:14 46.370348 -119.423126 28 3470ft 104kts
05-Dec-20 16:15 46.397060 -119.401068 32 3472ft 114kts
05-Dec-20 16:16 46.422128 -119.373739 39 3461ft 111kts
05-Dec-20 16:17 46.443819 -119.343314 47 3467ft 101kts
05-Dec-20 16:18 46.462205 -119.309641 55 3283ft 114kts
05-Dec-20 16:19 46.478027 -119.271243 62 3171ft 106kts
05-Dec-20 16:20 46.489757 -119.232331 69 3172ft 105kts
05-Dec-20 16:21 46.497951 -119.191780 77 3172ft 104kts
05-Dec-20 16:22 46.502594 -119.149941 84 3172ft 105kts
05-Dec-20 16:23 46.503588 -119.107597 91 3172ft 105kts
05-Dec-20 16:24 46.500935 -119.065427 98 3172ft 105kts
05-Dec-20 16:25 46.494668 -119.024078 105 3172ft 105kts
05-Dec-20 16:26 46.484889 -118.984203 112 3172ft 105kts
05-Dec-20 16:27 46.471782 -118.946513 119 3172ft 104kts
05-Dec-20 16:28 46.455194 -118.912080 144 3166ft 105kts
05-Dec-20 16:29 46.426057 -118.919219 195 2870ft 105kts
05-Dec-20 16:30 46.398771 -118.930071 192 2872ft 101kts
05-Dec-20 16:31 46.375876 -118.955878 223 2429ft 106kts
05-Dec-20 16:32 46.356105 -118.984607 224 2372ft 99kts
05-Dec-20 16:33 46.338639 -119.010767 225 2359ft 76kts
05-Dec-20 16:34 46.323192 -119.034354 223 1961ft 81kts
05-Dec-20 16:35 46.308121 -119.056305 227 1540ft 76kts
05-Dec-20 16:36 46.293840 -119.077531 225 1121ft 73kts
05-Dec-20 16:37 46.278934 -119.099000 227 746ft 75kts
05-Dec-20 16:38 46.265329 -119.119621 226 404ft 43kts
05-Dec-20 16:39 46.261347 -119.122698 130 401ft 9kts
05-Dec-20 16:40 46.260182 -119.120926 120 402ft 0kts
05-Dec-20 16:41 46.261156 -119.115939 66 401ft 29kts
05-Dec-20 16:42 46.257902 -119.107945 88 405ft 18kts
05-Dec-20 16:43 46.263375 -119.106778 347 410ft 20kts
05-Dec-20 16:44 46.264740 -119.106666 283 411ft 0kts

Navigation Log

Ident Type
Flight plan parsing failed, navigation log unavailable